Terminal Aerodrome Forecast
Issued by NWS

Home | Current Version | Previous Version | Graphics & Text | Print | Product List | Glossary On
Versions: 1 2 3 4 5 6 7 8 9 10 11 12 13 14 15 16 17 18 19 20 21 22 23 24 25 26
354
FTUS43 KBIS 010357 AAG
TAFMOT
TAF AMD
KMOT 010357Z 0104/0124 32020G30KT 5SM -SHRA BR OVC008
      TEMPO 0104/0108 2SM -SHRA BR OVC010
     FM011300 31015G22KT P6SM OVC012
     FM011800 32014KT P6SM BKN030
     FM012100 32012KT P6SM SCT040=

USA.gov is the U.S. government's official web portal to all federal, state and local government web resources and services.